createdAt,value
2022-09-05T00:00:13.403Z,0.00
2022-09-05T00:01:13.422Z,0.00
2022-09-05T00:02:13.441Z,0.00
2022-09-05T00:03:13.559Z,0.00
2022-09-05T00:04:24.555Z,0.00
2022-09-05T00:05:13.497Z,0.00
2022-09-05T00:06:13.516Z,0.00
2022-09-05T00:07:43.283Z,0.00
2022-09-05T00:08:13.553Z,0.00
2022-09-05T00:09:13.574Z,0.00
2022-09-05T00:10:13.593Z,0.00
2022-09-05T00:11:40.415Z,0.00
2022-09-05T00:12:13.628Z,0.00
2022-09-05T00:13:13.647Z,0.00
2022-09-05T00:14:13.667Z,0.00
2022-09-05T00:15:16.339Z,0.00
2022-09-05T00:16:13.743Z,0.00
2022-09-05T00:17:13.723Z,0.00
2022-09-05T00:24:20.076Z,0.00
2022-09-05T00:24:22.749Z,0.00
2022-09-05T00:24:23.449Z,0.00
2022-09-05T00:24:27.146Z,0.00
2022-09-05T00:24:28.843Z,0.00
2022-09-05T00:24:34.755Z,0.00
2022-09-05T00:24:35.188Z,0.00
2022-09-05T00:25:31.087Z,0.00
2022-09-05T00:26:13.895Z,0.00
2022-09-05T00:27:13.915Z,0.00
2022-09-05T00:28:26.081Z,0.00
2022-09-05T00:29:14.882Z,0.00
2022-09-05T00:31:05.950Z,0.00
2022-09-05T00:31:53.348Z,0.00
2022-09-05T00:32:14.097Z,0.00
2022-09-05T00:33:17.337Z,0.00
2022-09-05T00:34:14.049Z,0.00
2022-09-05T00:35:14.066Z,0.00
2022-09-05T00:36:14.084Z,0.00
2022-09-05T00:37:16.416Z,0.00
2022-09-05T00:38:14.123Z,0.00
2022-09-05T00:39:14.142Z,0.00
2022-09-05T00:40:18.376Z,0.00
2022-09-05T00:41:14.195Z,0.00
2022-09-05T00:42:14.198Z,0.00
2022-09-05T00:43:14.216Z,0.00
2022-09-05T00:44:14.237Z,0.00
2022-09-05T00:45:14.654Z,0.00
2022-09-05T00:46:14.311Z,0.00
2022-09-05T00:47:14.293Z,0.00
2022-09-05T00:48:14.314Z,0.00
2022-09-05T00:49:14.331Z,0.00
2022-09-05T00:50:14.348Z,0.00
2022-09-05T00:51:14.367Z,0.00
2022-09-05T00:52:14.387Z,0.00
2022-09-05T00:53:14.408Z,0.00
2022-09-05T00:54:15.944Z,0.00
2022-09-05T00:55:14.444Z,0.00
2022-09-05T00:56:14.464Z,0.00
2022-09-05T00:57:14.994Z,0.00
2022-09-05T00:58:14.500Z,0.00
2022-09-05T00:59:14.518Z,0.00
2022-09-05T01:00:17.626Z,0.00
2022-09-05T01:01:21.425Z,0.00
2022-09-05T01:02:14.685Z,0.00
2022-09-05T01:03:14.658Z,0.00
2022-09-05T01:04:14.614Z,0.00
2022-09-05T01:05:14.632Z,0.00
2022-09-05T01:06:14.660Z,0.00
2022-09-05T01:07:14.669Z,0.00
2022-09-05T01:08:14.688Z,0.00
2022-09-05T01:09:14.711Z,0.00
2022-09-05T01:10:14.733Z,0.00
2022-09-05T01:11:14.744Z,0.00
2022-09-05T01:12:14.766Z,0.00
2022-09-05T01:13:14.801Z,0.00
2022-09-05T01:14:14.803Z,0.00
2022-09-05T01:15:14.821Z,0.00
2022-09-05T01:16:14.887Z,0.00
2022-09-05T01:17:14.858Z,0.00
2022-09-05T01:18:14.874Z,0.00
2022-09-05T01:19:16.113Z,0.00
2022-09-05T01:20:19.159Z,0.00
2022-09-05T01:21:14.934Z,0.00
2022-09-05T01:22:14.950Z,0.00
2022-09-05T01:23:14.969Z,0.00
2022-09-05T01:24:14.989Z,0.00
2022-09-05T01:25:15.008Z,0.00
2022-09-05T01:26:15.024Z,0.00
2022-09-05T01:27:15.044Z,0.00
2022-09-05T01:29:16.677Z,0.00
2022-09-05T01:29:19.471Z,0.00
2022-09-05T01:30:15.101Z,0.00
2022-09-05T01:31:15.125Z,0.00
2022-09-05T01:32:15.139Z,0.00
2022-09-05T01:33:15.158Z,0.00
2022-09-05T01:34:15.175Z,0.00
2022-09-05T01:35:15.195Z,0.00
2022-09-05T01:36:15.212Z,0.00
2022-09-05T01:37:26.638Z,0.00
2022-09-05T01:38:15.253Z,0.00
2022-09-05T01:39:51.635Z,0.00
2022-09-05T01:40:16.871Z,0.00
2022-09-05T01:41:18.744Z,0.00
2022-09-05T01:42:15.326Z,0.00
2022-09-05T01:43:15.343Z,0.00
2022-09-05T01:44:15.363Z,0.00
2022-09-05T01:45:15.382Z,0.00
2022-09-05T01:46:15.450Z,0.00
2022-09-05T01:47:15.419Z,0.00
2022-09-05T01:48:15.440Z,0.00
2022-09-05T01:49:15.454Z,0.00
2022-09-05T01:50:15.475Z,0.00
2022-09-05T01:51:29.110Z,0.00
2022-09-05T01:52:15.510Z,0.00
2022-09-05T01:53:15.530Z,0.00
2022-09-05T01:54:25.569Z,0.00
2022-09-05T01:55:15.566Z,0.00
2022-09-05T01:56:15.590Z,0.00
2022-09-05T01:57:19.548Z,0.00
2022-09-05T01:58:15.620Z,0.00
2022-09-05T01:59:15.640Z,0.00
2022-09-05T02:00:15.660Z,0.00
2022-09-05T02:01:30.081Z,0.00
2022-09-05T02:02:15.762Z,0.00
2022-09-05T02:03:15.779Z,0.00
2022-09-05T02:04:15.733Z,0.00
2022-09-05T02:05:15.750Z,0.00
2022-09-05T02:06:15.771Z,0.00
2022-09-05T02:07:30.057Z,0.00
2022-09-05T02:08:15.839Z,0.00
2022-09-05T02:09:15.826Z,0.00
2022-09-05T02:10:15.844Z,0.00
2022-09-05T02:11:15.860Z,0.00
2022-09-05T02:12:15.879Z,0.00
2022-09-05T02:13:15.900Z,0.00
2022-09-05T02:14:16.355Z,0.00
2022-09-05T02:15:15.937Z,0.00
2022-09-05T02:16:16.046Z,0.00
2022-09-05T02:17:23.426Z,0.00
2022-09-05T02:18:15.991Z,0.00
2022-09-05T02:19:16.009Z,0.00
2022-09-05T02:20:23.507Z,0.00
2022-09-05T02:21:16.055Z,0.00
2022-09-05T02:22:16.063Z,0.00
2022-09-05T02:23:31.001Z,0.00
2022-09-05T02:24:16.100Z,0.00
2022-09-05T02:25:18.138Z,0.00
2022-09-05T02:26:16.136Z,0.00
2022-09-05T02:27:43.584Z,0.00
2022-09-05T02:28:16.175Z,0.00
2022-09-05T02:29:29.736Z,0.00
2022-09-05T02:30:16.214Z,0.00
2022-09-05T02:31:20.545Z,0.00
2022-09-05T02:32:16.250Z,0.00
2022-09-05T02:33:16.267Z,0.00
2022-09-05T02:34:16.283Z,0.00
2022-09-05T02:35:16.304Z,0.00
2022-09-05T02:36:16.323Z,0.00
2022-09-05T02:37:16.341Z,0.00
2022-09-05T02:40:16.881Z,0.00
2022-09-05T02:45:03.688Z,0.00
2022-09-05T02:45:07.733Z,0.00
2022-09-05T02:45:10.844Z,0.00
2022-09-05T02:45:12.352Z,0.00
2022-09-05T02:45:13.411Z,0.00
2022-09-05T02:45:21.358Z,0.00
2022-09-05T02:45:26.667Z,0.00
2022-09-05T02:46:16.578Z,0.00
2022-09-05T02:47:16.527Z,0.00
2022-09-05T02:48:16.542Z,0.00
2022-09-05T02:52:07.428Z,0.00
2022-09-05T02:55:22.310Z,0.00
2022-09-05T02:57:24.356Z,0.00
2022-09-05T02:57:27.700Z,0.00
2022-09-05T02:57:33.714Z,0.00
2022-09-05T02:57:34.043Z,0.00
2022-09-05T02:57:37.964Z,0.00
2022-09-05T02:57:42.131Z,0.00
2022-09-05T02:57:46.576Z,0.00
2022-09-05T02:58:16.758Z,0.00
2022-09-05T02:59:16.739Z,0.00
2022-09-05T03:00:16.758Z,0.00
2022-09-05T03:01:16.823Z,0.00
2022-09-05T03:02:25.621Z,0.00
2022-09-05T03:03:16.886Z,0.00
2022-09-05T03:04:16.873Z,0.00
2022-09-05T03:05:16.851Z,0.00
2022-09-05T03:06:17.760Z,0.00
2022-09-05T03:07:16.887Z,0.00
2022-09-05T03:08:16.904Z,0.00
2022-09-05T03:09:17.627Z,0.00
2022-09-05T03:10:16.943Z,0.00
2022-09-05T03:11:16.960Z,0.00
2022-09-05T03:12:29.409Z,0.00
2022-09-05T03:13:16.996Z,0.00
2022-09-05T03:14:17.015Z,0.00
2022-09-05T03:15:18.770Z,0.00
2022-09-05T03:16:17.081Z,0.00
2022-09-05T03:17:17.067Z,0.00
2022-09-05T03:18:20.872Z,0.00
2022-09-05T03:19:17.104Z,0.00
2022-09-05T03:20:17.127Z,0.00
2022-09-05T03:21:17.140Z,0.00
2022-09-05T03:22:17.158Z,0.00
2022-09-05T03:23:17.178Z,0.00
2022-09-05T03:24:17.195Z,0.00
2022-09-05T03:25:17.215Z,0.00
2022-09-05T03:26:17.232Z,0.00
2022-09-05T03:27:17.250Z,0.00
2022-09-05T03:28:17.266Z,0.00
2022-09-05T03:29:17.287Z,0.00
2022-09-05T03:30:17.303Z,0.00
2022-09-05T03:31:22.416Z,0.00
2022-09-05T03:32:17.340Z,0.00
2022-09-05T03:33:17.358Z,0.00
2022-09-05T03:34:17.377Z,0.00
2022-09-05T03:35:17.395Z,0.00
2022-09-05T03:36:19.044Z,0.00
2022-09-05T03:37:17.431Z,0.00
2022-09-05T03:38:17.449Z,0.00
2022-09-05T03:39:17.464Z,0.00
2022-09-05T03:40:17.505Z,0.00
2022-09-05T03:41:17.501Z,0.00
2022-09-05T03:42:17.518Z,0.00
2022-09-05T03:43:17.539Z,0.00
2022-09-05T03:44:17.554Z,0.00
2022-09-05T03:45:27.907Z,0.00
2022-09-05T03:46:17.633Z,0.00
2022-09-05T03:47:17.616Z,0.00
2022-09-05T03:48:28.485Z,4.00
2022-09-05T03:51:05.028Z,4.00
2022-09-05T03:53:29.447Z,0.00
2022-09-05T03:57:08.885Z,0.00
2022-09-05T03:57:13.197Z,4.00
2022-09-05T03:57:14.834Z,4.00
2022-09-05T03:57:17.491Z,0.00
2022-09-05T03:57:22.672Z,4.00
2022-09-05T03:57:27.026Z,4.00
2022-09-05T03:57:38.508Z,8.00
2022-09-05T03:58:18.329Z,8.00
2022-09-05T03:59:17.825Z,8.00
2022-09-05T04:00:17.843Z,12.00
2022-09-05T04:05:12.479Z,16.00
2022-09-05T04:06:37.294Z,16.00
2022-09-05T04:08:07.949Z,24.00
2022-09-05T04:08:08.466Z,20.00
2022-09-05T04:08:16.627Z,32.00
2022-09-05T04:08:18.933Z,36.00
2022-09-05T04:08:19.683Z,28.00
2022-09-05T04:08:32.357Z,44.00
2022-09-05T04:09:31.464Z,52.00
2022-09-05T04:10:18.106Z,60.00
2022-09-05T04:11:18.040Z,64.00
2022-09-05T04:12:18.055Z,76.00
2022-09-05T04:13:18.072Z,88.00
2022-09-05T04:14:18.090Z,100.00
2022-09-05T04:15:18.108Z,116.00
2022-09-05T04:16:18.184Z,128.00
2022-09-05T04:17:18.143Z,144.00
2022-09-05T04:18:18.169Z,160.00
2022-09-05T04:19:18.179Z,176.00
2022-09-05T04:20:18.199Z,196.00
2022-09-05T04:21:18.214Z,216.00
2022-09-05T04:22:18.232Z,240.00
2022-09-05T04:23:18.252Z,260.00
2022-09-05T04:24:18.268Z,288.00
2022-09-05T04:25:18.289Z,312.00
2022-09-05T04:26:18.303Z,340.00
2022-09-05T04:27:18.321Z,372.00
2022-09-05T04:28:18.340Z,408.00
2022-09-05T04:29:18.357Z,440.00
2022-09-05T04:30:38.865Z,476.00
2022-09-05T04:31:18.434Z,516.00
2022-09-05T04:32:19.747Z,560.00
2022-09-05T04:33:18.427Z,604.00
2022-09-05T04:34:18.446Z,652.00
2022-09-05T04:35:18.464Z,704.00
2022-09-05T04:36:18.594Z,764.00
2022-09-05T04:37:18.499Z,824.00
2022-09-05T04:38:18.517Z,888.00
2022-09-05T04:39:18.535Z,948.00
2022-09-05T04:40:18.551Z,1016.00
2022-09-05T04:41:18.581Z,1084.00
2022-09-05T04:42:18.596Z,1152.00
2022-09-05T04:43:18.605Z,1224.00
2022-09-05T04:44:18.622Z,1296.00
2022-09-05T04:45:24.079Z,1368.00
2022-09-05T04:46:19.358Z,1440.00
2022-09-05T04:47:18.674Z,1516.00
2022-09-05T04:48:21.396Z,1588.00
2022-09-05T04:49:18.710Z,1652.00
2022-09-05T04:50:23.565Z,1712.00
2022-09-05T04:51:18.761Z,1776.00
2022-09-05T04:52:25.733Z,1840.00
2022-09-05T04:53:18.782Z,1916.00
2022-09-05T04:54:18.795Z,1992.00
2022-09-05T04:55:18.815Z,2060.00
2022-09-05T04:56:18.834Z,2128.00
2022-09-05T04:57:18.852Z,2196.00
2022-09-05T04:58:18.873Z,2264.00
2022-09-05T05:01:13.188Z,2344.00
2022-09-05T05:05:42.089Z,2412.00
2022-09-05T05:06:01.810Z,2488.00
2022-09-05T05:06:11.900Z,2852.00
2022-09-05T05:06:12.588Z,2756.00
2022-09-05T05:06:17.109Z,2572.00
2022-09-05T05:06:18.910Z,2664.00
2022-09-05T05:06:38.019Z,2968.00
2022-09-05T05:07:19.107Z,3100.00
2022-09-05T05:08:33.732Z,3224.00
2022-09-05T05:09:19.069Z,3364.00
2022-09-05T05:11:19.972Z,3516.00
2022-09-05T05:16:54.333Z,3672.00
2022-09-05T05:17:55.550Z,3976.00
2022-09-05T05:18:01.745Z,3828.00
2022-09-05T05:18:09.412Z,4404.00
2022-09-05T05:18:12.957Z,4324.00
2022-09-05T05:18:14.532Z,4120.00
2022-09-05T05:18:15.973Z,4232.00
2022-09-05T05:18:37.806Z,4472.00
2022-09-05T05:19:21.739Z,4544.00
2022-09-05T05:20:42.107Z,4616.00
2022-09-05T05:21:19.286Z,4696.00
2022-09-05T05:22:19.307Z,4768.00
2022-09-05T05:23:19.319Z,4844.00
2022-09-05T05:24:22.012Z,4912.00
2022-09-05T05:25:19.358Z,4968.00
2022-09-05T05:26:19.378Z,5000.00
2022-09-05T05:27:19.396Z,4996.00
2022-09-05T05:28:24.229Z,4960.00
2022-09-05T05:29:19.816Z,4892.00
2022-09-05T05:30:19.448Z,4816.00
2022-09-05T05:31:19.538Z,4720.00
2022-09-05T05:32:19.488Z,4628.00
2022-09-05T05:33:19.506Z,4536.00
2022-09-05T05:34:24.374Z,4456.00
2022-09-05T05:35:19.545Z,4388.00
2022-09-05T05:36:19.559Z,4320.00
2022-09-05T05:37:19.580Z,4236.00
2022-09-05T05:38:19.679Z,4148.00
2022-09-05T05:39:19.615Z,4064.00
2022-09-05T05:40:19.635Z,3996.00
2022-09-05T05:41:19.655Z,3940.00
2022-09-05T05:42:20.595Z,3920.00
2022-09-05T05:43:19.691Z,3932.00
2022-09-05T05:44:19.709Z,3952.00
2022-09-05T05:45:19.728Z,3952.00
2022-09-05T05:46:19.798Z,3948.00
2022-09-05T05:47:28.335Z,3940.00
2022-09-05T05:48:19.818Z,3968.00
2022-09-05T05:49:19.804Z,4048.00
2022-09-05T05:50:19.823Z,4180.00
2022-09-05T05:51:19.840Z,4336.00
2022-09-05T05:52:19.861Z,4480.00
2022-09-05T05:53:28.923Z,4620.00
2022-09-05T05:54:19.898Z,4732.00
2022-09-05T05:55:50.647Z,4868.00
2022-09-05T05:56:19.934Z,5012.00
2022-09-05T05:57:19.955Z,5168.00
2022-09-05T05:58:20.054Z,5320.00
2022-09-05T05:59:24.089Z,5496.00
2022-09-05T06:00:27.566Z,5724.00
2022-09-05T06:01:27.361Z,6012.00
2022-09-05T06:02:20.174Z,6352.00
2022-09-05T06:03:26.604Z,6728.00
2022-09-05T06:04:20.085Z,7088.00
2022-09-05T06:05:20.105Z,7384.00
2022-09-05T06:06:20.123Z,7552.00
2022-09-05T06:07:20.142Z,7628.00
2022-09-05T06:10:45.962Z,7620.00
2022-09-05T06:14:47.863Z,7548.00
2022-09-05T06:14:49.787Z,7400.00
2022-09-05T06:14:55.518Z,6928.00
2022-09-05T06:14:55.724Z,7476.00
2022-09-05T06:15:02.502Z,7096.00
2022-09-05T06:15:03.767Z,7284.00
2022-09-05T06:15:23.269Z,6832.00
2022-09-05T06:16:20.385Z,6788.00
2022-09-05T06:17:26.327Z,6676.00
2022-09-05T06:18:20.355Z,6608.00
2022-09-05T06:19:20.377Z,6592.00
2022-09-05T06:21:09.369Z,6616.00
2022-09-05T06:22:10.456Z,6612.00
2022-09-05T06:22:21.374Z,6640.00
2022-09-05T06:23:38.566Z,6712.00
2022-09-05T06:24:21.190Z,6748.00
2022-09-05T06:25:20.487Z,6820.00
2022-09-05T06:26:20.515Z,6956.00
2022-09-05T06:27:20.527Z,7124.00
2022-09-05T06:28:20.549Z,7332.00
2022-09-05T06:29:20.576Z,7492.00
2022-09-05T06:30:20.593Z,7592.00
2022-09-05T06:31:29.346Z,7596.00
2022-09-05T06:32:20.655Z,7684.00
2022-09-05T06:33:20.753Z,7836.00
2022-09-05T06:34:32.595Z,8040.00
2022-09-05T06:35:20.682Z,8236.00
2022-09-05T06:36:20.703Z,8348.00
2022-09-05T06:37:20.720Z,8452.00
2022-09-05T06:38:20.739Z,8552.00
2022-09-05T06:39:20.843Z,8672.00
2022-09-05T06:40:20.779Z,8828.00
2022-09-05T06:41:20.799Z,9008.00
2022-09-05T06:42:40.681Z,9196.00
2022-09-05T06:43:20.919Z,9336.00
2022-09-05T06:44:20.857Z,9492.00
2022-09-05T06:45:27.130Z,9592.00
2022-09-05T06:46:43.830Z,9628.00
2022-09-05T06:47:30.272Z,9668.00
2022-09-05T06:48:32.109Z,9736.00
2022-09-05T06:49:28.583Z,9784.00
2022-09-05T06:50:27.259Z,9740.00
2022-09-05T06:51:20.996Z,9776.00
2022-09-05T06:52:28.327Z,9864.00
2022-09-05T06:53:21.161Z,9908.00
2022-09-05T06:54:21.058Z,10324.00
2022-09-05T06:55:21.075Z,12280.00
2022-09-05T06:56:25.699Z,13808.00
2022-09-05T06:57:21.122Z,13752.00
2022-09-05T06:58:21.135Z,13092.00
2022-09-05T06:59:21.155Z,13184.00
2022-09-05T07:00:22.175Z,12272.00
2022-09-05T07:01:21.272Z,12128.00
2022-09-05T07:02:27.294Z,12000.00
2022-09-05T07:03:22.970Z,11012.00
2022-09-05T07:05:18.437Z,10388.00
2022-09-05T07:05:37.450Z,10020.00
2022-09-05T07:06:21.300Z,10044.00
2022-09-05T07:07:21.319Z,10116.00
2022-09-05T07:08:33.489Z,10072.00
2022-09-05T07:09:21.365Z,10112.00
2022-09-05T07:10:37.870Z,10504.00
2022-09-05T07:11:21.409Z,10784.00
2022-09-05T07:12:21.425Z,10960.00
2022-09-05T07:13:21.483Z,11836.00
2022-09-05T07:14:21.464Z,12804.00
2022-09-05T07:15:21.493Z,13456.00
2022-09-05T07:16:38.142Z,13784.00
2022-09-05T07:17:21.529Z,13308.00
2022-09-05T07:18:21.550Z,12360.00
2022-09-05T07:19:21.570Z,13580.00
2022-09-05T07:20:22.153Z,14508.00
2022-09-05T07:21:26.084Z,14248.00
2022-09-05T07:22:46.259Z,14024.00
2022-09-05T07:24:07.215Z,13812.00
2022-09-05T07:24:53.267Z,12792.00
2022-09-05T07:25:21.696Z,12352.00
2022-09-05T07:26:49.705Z,12552.00
2022-09-05T07:27:25.372Z,12816.00
2022-09-05T07:28:26.302Z,12792.00
2022-09-05T07:29:21.781Z,13220.00
2022-09-05T07:30:21.832Z,13404.00
2022-09-05T07:31:27.382Z,13772.00
2022-09-05T07:32:24.555Z,14752.00
2022-09-05T07:33:21.935Z,15972.00
2022-09-05T07:34:21.890Z,17472.00
2022-09-05T07:35:21.941Z,18432.00
2022-09-05T07:36:22.433Z,18784.00
2022-09-05T07:37:21.956Z,18336.00
2022-09-05T07:38:21.975Z,18592.00
2022-09-05T07:39:28.856Z,20416.00
2022-09-05T07:40:26.380Z,22240.00
2022-09-05T07:41:22.042Z,21760.00
2022-09-05T07:42:22.061Z,20928.00
2022-09-05T07:43:22.118Z,20128.00
2022-09-05T07:44:22.167Z,18784.00
2022-09-05T07:45:22.226Z,18464.00
2022-09-05T07:46:22.183Z,17184.00
2022-09-05T07:47:22.174Z,17280.00
2022-09-05T07:48:22.331Z,17696.00
2022-09-05T07:49:22.216Z,17632.00
2022-09-05T07:52:05.383Z,15736.00
2022-09-05T07:55:11.015Z,13728.00
2022-09-05T07:56:55.148Z,11760.00
2022-09-05T07:56:55.763Z,11180.00
2022-09-05T07:57:08.984Z,11276.00
2022-09-05T07:57:10.215Z,11108.00
2022-09-05T07:57:10.577Z,11180.00
2022-09-05T07:57:31.598Z,11328.00
2022-09-05T07:58:22.422Z,11468.00
2022-09-05T07:59:22.449Z,11524.00
2022-09-05T08:00:25.987Z,11528.00
2022-09-05T08:01:22.623Z,11536.00
2022-09-05T08:02:22.523Z,11520.00
2022-09-05T08:03:22.570Z,11452.00
2022-09-05T08:04:22.562Z,11332.00
2022-09-05T08:05:27.857Z,11356.00
2022-09-05T08:06:37.557Z,11432.00
2022-09-05T08:07:49.031Z,11460.00
2022-09-05T08:08:22.990Z,11436.00
2022-09-05T08:10:08.188Z,11380.00
2022-09-05T08:10:31.111Z,11284.00
2022-09-05T08:11:26.024Z,11040.00
2022-09-05T08:12:28.141Z,10828.00
2022-09-05T08:13:27.366Z,10596.00
2022-09-05T08:14:43.392Z,10476.00
2022-09-05T08:15:22.802Z,10320.00
2022-09-05T08:16:22.864Z,10372.00
2022-09-05T08:17:27.471Z,10360.00
2022-09-05T08:18:22.864Z,10320.00
2022-09-05T08:19:22.886Z,10180.00
2022-09-05T08:20:22.909Z,10076.00
2022-09-05T08:21:27.317Z,9808.00
2022-09-05T08:22:22.952Z,9668.00
2022-09-05T08:23:23.031Z,9880.00
2022-09-05T08:24:22.999Z,9968.00
2022-09-05T08:25:23.020Z,9900.00
2022-09-05T08:26:23.042Z,9736.00
2022-09-05T08:27:23.065Z,9524.00
2022-09-05T08:28:23.087Z,9272.00
2022-09-05T08:29:23.109Z,8976.00
2022-09-05T08:30:26.083Z,8780.00
2022-09-05T08:31:23.205Z,8720.00
2022-09-05T08:32:23.174Z,8828.00
2022-09-05T08:33:23.200Z,8908.00
2022-09-05T08:34:31.370Z,8948.00
2022-09-05T08:35:23.240Z,9100.00
2022-09-05T08:36:23.264Z,9304.00
2022-09-05T08:37:23.285Z,9580.00
2022-09-05T08:38:23.334Z,10004.00
2022-09-05T08:39:23.365Z,10512.00
2022-09-05T08:40:23.386Z,11004.00
2022-09-05T08:41:25.940Z,11264.00
2022-09-05T08:42:23.395Z,11392.00
2022-09-05T08:46:39.154Z,11364.00
2022-09-05T08:46:40.995Z,11020.00
2022-09-05T08:46:41.610Z,11244.00
2022-09-05T08:46:44.301Z,10944.00
2022-09-05T08:47:23.590Z,10764.00
2022-09-05T08:48:23.530Z,10772.00
2022-09-05T08:49:24.387Z,11000.00
2022-09-05T08:50:26.823Z,11396.00
2022-09-05T08:51:23.598Z,11560.00
2022-09-05T08:52:23.619Z,11504.00
2022-09-05T08:53:45.183Z,11420.00
2022-09-05T08:54:23.667Z,11296.00
2022-09-05T08:55:23.686Z,11112.00
2022-09-05T08:56:23.709Z,10852.00
2022-09-05T08:57:23.733Z,10448.00
2022-09-05T08:58:23.752Z,10388.00
2022-09-05T08:59:31.458Z,10452.00
2022-09-05T09:00:24.563Z,10452.00
2022-09-05T09:01:23.871Z,10292.00
2022-09-05T09:02:47.378Z,10136.00
2022-09-05T09:03:25.995Z,9908.00
2022-09-05T09:04:40.011Z,9496.00
2022-09-05T09:05:23.911Z,8752.00
2022-09-05T09:06:23.933Z,7864.00
2022-09-05T09:07:50.797Z,7616.00
2022-09-05T09:08:23.979Z,7572.00
2022-09-05T09:09:24.001Z,7392.00
2022-09-05T09:10:25.896Z,7252.00
2022-09-05T09:11:24.047Z,7096.00
2022-09-05T09:12:24.075Z,7668.00
2022-09-05T09:13:24.168Z,8100.00
2022-09-05T09:14:31.020Z,8220.00
2022-09-05T09:15:24.141Z,8224.00
2022-09-05T09:16:24.274Z,8236.00
2022-09-05T09:17:24.180Z,8208.00
2022-09-05T09:18:24.205Z,8172.00
2022-09-05T09:19:29.321Z,8140.00
2022-09-05T09:20:24.248Z,8148.00
2022-09-05T09:21:24.271Z,8112.00
2022-09-05T09:22:24.294Z,8092.00
2022-09-05T09:23:32.067Z,8068.00
2022-09-05T09:24:24.340Z,8004.00
2022-09-05T09:25:27.194Z,7964.00
2022-09-05T09:26:24.528Z,8016.00
2022-09-05T09:27:36.396Z,7976.00
2022-09-05T09:28:49.487Z,7844.00
2022-09-05T09:29:24.458Z,7788.00
2022-09-05T09:30:24.495Z,7900.00
2022-09-05T09:31:24.528Z,7896.00
2022-09-05T09:32:24.518Z,7816.00
2022-09-05T09:33:27.150Z,7772.00
2022-09-05T09:34:24.564Z,7724.00
2022-09-05T09:35:24.588Z,7656.00
2022-09-05T09:36:24.612Z,7660.00
2022-09-05T09:37:49.568Z,7684.00
2022-09-05T09:38:24.728Z,7716.00
2022-09-05T09:39:38.432Z,7712.00
2022-09-05T09:40:24.756Z,7752.00
2022-09-05T09:41:24.739Z,7760.00
2022-09-05T09:42:33.543Z,7748.00
2022-09-05T09:43:24.770Z,7820.00
2022-09-05T09:44:24.790Z,7932.00
2022-09-05T09:45:29.097Z,8048.00
2022-09-05T09:46:24.870Z,8188.00
2022-09-05T09:47:24.857Z,8292.00
2022-09-05T09:48:24.965Z,8328.00
2022-09-05T09:49:24.902Z,8400.00
2022-09-05T09:50:24.931Z,8488.00
2022-09-05T09:51:25.499Z,8556.00
2022-09-05T09:52:24.972Z,8580.00
2022-09-05T09:53:24.995Z,8504.00
2022-09-05T09:54:25.019Z,8360.00
2022-09-05T09:55:25.039Z,8344.00
2022-09-05T09:56:25.062Z,8360.00
2022-09-05T09:57:25.086Z,8348.00
2022-09-05T09:58:26.162Z,8368.00
2022-09-05T09:59:25.129Z,8436.00
2022-09-05T10:00:25.153Z,8424.00
2022-09-05T10:01:36.067Z,8396.00
2022-09-05T10:04:57.914Z,8316.00
2022-09-05T10:09:39.927Z,8276.00
2022-09-05T10:10:34.461Z,8204.00
2022-09-05T10:10:36.401Z,8224.00
2022-09-05T10:10:44.346Z,8032.00
2022-09-05T10:10:48.190Z,8188.00
2022-09-05T10:10:48.193Z,8108.00
2022-09-05T10:10:53.741Z,8168.00
2022-09-05T10:10:55.365Z,8172.00
2022-09-05T10:11:49.962Z,8012.00
2022-09-05T10:13:25.708Z,8072.00
2022-09-05T10:14:47.849Z,8088.00
2022-09-05T10:15:31.067Z,8104.00
2022-09-05T10:16:25.623Z,8036.00
2022-09-05T10:17:25.552Z,7948.00
2022-09-05T10:18:25.575Z,7732.00
2022-09-05T10:20:07.620Z,7532.00
2022-09-05T10:20:29.342Z,7392.00
2022-09-05T10:21:25.643Z,7312.00
2022-09-05T10:22:40.845Z,7276.00
2022-09-05T10:23:25.765Z,7300.00
2022-09-05T10:24:25.710Z,7428.00
2022-09-05T10:25:25.732Z,7520.00
2022-09-05T10:26:25.753Z,7608.00
2022-09-05T10:27:25.778Z,7696.00
2022-09-05T10:28:25.806Z,7588.00
2022-09-05T10:29:36.553Z,7712.00
2022-09-05T10:30:50.341Z,8288.00
2022-09-05T10:33:33.865Z,8216.00
2022-09-05T10:35:05.774Z,8260.00
2022-09-05T10:35:11.370Z,10452.00
2022-09-05T10:35:19.838Z,7800.00
2022-09-05T10:35:26.519Z,18528.00
2022-09-05T10:36:26.625Z,31392.00
2022-09-05T10:37:26.017Z,41184.00
2022-09-05T10:38:26.035Z,38944.00
2022-09-05T10:39:26.110Z,28800.00
2022-09-05T10:40:26.083Z,25152.00
2022-09-05T10:41:26.108Z,31776.00
2022-09-05T10:42:26.132Z,37728.00
2022-09-05T10:43:26.335Z,29504.00
2022-09-05T10:44:26.182Z,18304.00
2022-09-05T10:45:38.014Z,13624.00
2022-09-05T10:46:49.466Z,20288.00
2022-09-05T10:47:26.303Z,33920.00
2022-09-05T10:48:26.295Z,40352.00
2022-09-05T10:49:30.406Z,44384.00
2022-09-05T10:50:26.345Z,46880.00
2022-09-05T10:51:27.798Z,45856.00
2022-09-05T10:52:26.389Z,42656.00
2022-09-05T10:53:26.553Z,43424.00
2022-09-05T10:54:26.439Z,41664.00
2022-09-05T10:55:26.473Z,41728.00
2022-09-05T10:56:28.608Z,43424.00
2022-09-05T10:57:26.525Z,40768.00
2022-09-05T10:59:19.129Z,34880.00
2022-09-05T11:02:15.820Z,37760.00
2022-09-05T11:02:22.649Z,42464.00
2022-09-05T11:02:23.721Z,41088.00
2022-09-05T11:02:34.653Z,44256.00
2022-09-05T11:03:26.893Z,44160.00
2022-09-05T11:04:26.726Z,44160.00
2022-09-05T11:05:26.822Z,42048.00
2022-09-05T11:06:26.785Z,46304.00
2022-09-05T11:07:29.757Z,45728.00
2022-09-05T11:08:26.844Z,45216.00
2022-09-05T11:09:26.875Z,47776.00
2022-09-05T11:10:26.908Z,47680.00
2022-09-05T11:11:33.926Z,46336.00
2022-09-05T11:12:26.967Z,45024.00
2022-09-05T11:13:27.081Z,38560.00
2022-09-05T11:14:27.394Z,28640.00
2022-09-05T11:15:27.060Z,21888.00
2022-09-05T11:16:27.115Z,16000.00
2022-09-05T11:17:27.121Z,11816.00
2022-09-05T11:18:27.181Z,10416.00
2022-09-05T11:19:27.185Z,10296.00
2022-09-05T11:20:34.822Z,10308.00
2022-09-05T11:21:27.246Z,10576.00
2022-09-05T11:22:27.279Z,10748.00
2022-09-05T11:23:27.307Z,10868.00
2022-09-05T11:24:27.626Z,10928.00
2022-09-05T11:25:36.948Z,11496.00
2022-09-05T11:26:27.396Z,13440.00
2022-09-05T11:27:27.426Z,21344.00
2022-09-05T11:28:27.456Z,31264.00
2022-09-05T11:29:27.485Z,39872.00
2022-09-05T11:30:30.378Z,42432.00
2022-09-05T11:31:36.218Z,40736.00
2022-09-05T11:36:18.864Z,39552.00
2022-09-05T11:38:53.651Z,29312.00
2022-09-05T11:39:46.457Z,40192.00
2022-09-05T11:39:48.771Z,40032.00
2022-09-05T11:39:56.069Z,40672.00
2022-09-05T11:40:00.281Z,41600.00
2022-09-05T11:40:04.117Z,42048.00
2022-09-05T11:40:08.819Z,40704.00
2022-09-05T11:41:28.500Z,40960.00
2022-09-05T11:42:27.864Z,40032.00
2022-09-05T11:43:27.893Z,39808.00
2022-09-05T11:44:27.919Z,40000.00
2022-09-05T11:45:27.951Z,40544.00
2022-09-05T11:46:29.684Z,41184.00
2022-09-05T11:47:33.188Z,43008.00
2022-09-05T11:48:28.044Z,43680.00
2022-09-05T11:49:28.075Z,44384.00
2022-09-05T11:50:28.104Z,42592.00
2022-09-05T11:51:33.818Z,42208.00
2022-09-05T11:52:28.167Z,41760.00
2022-09-05T11:53:28.197Z,41664.00
2022-09-05T11:54:28.230Z,40160.00
2022-09-05T11:55:28.259Z,41664.00
2022-09-05T11:56:29.007Z,40512.00
2022-09-05T11:57:33.556Z,41600.00
2022-09-05T11:59:33.031Z,41472.00
2022-09-05T12:00:31.239Z,40288.00
2022-09-05T12:01:42.908Z,36800.00
2022-09-05T12:02:28.569Z,28640.00
2022-09-05T12:03:57.802Z,24288.00
2022-09-05T12:04:28.548Z,22016.00
2022-09-05T12:05:47.546Z,19456.00
2022-09-05T12:06:28.657Z,16072.00
2022-09-05T12:07:32.025Z,14256.00
2022-09-05T12:08:28.916Z,13048.00
2022-09-05T12:09:28.709Z,12556.00
2022-09-05T12:10:46.412Z,12656.00
2022-09-05T12:11:28.772Z,12724.00
2022-09-05T12:12:38.638Z,13044.00
2022-09-05T12:13:29.316Z,12636.00
2022-09-05T12:14:28.863Z,11896.00
2022-09-05T12:15:28.894Z,11996.00
2022-09-05T12:16:28.970Z,12472.00
2022-09-05T12:17:35.540Z,12136.00
2022-09-05T12:18:29.107Z,12076.00
2022-09-05T12:19:29.014Z,12088.00
2022-09-05T12:20:29.043Z,12272.00
2022-09-05T12:21:29.073Z,12208.00
2022-09-05T12:22:29.101Z,12172.00
2022-09-05T12:23:53.666Z,11684.00
2022-09-05T12:25:24.701Z,11228.00
2022-09-05T12:27:36.749Z,11112.00